createdAt,value
2018-07-15T00:00:20.588Z,99.90
2018-07-15T00:02:48.991Z,99.90
2018-07-15T00:05:17.363Z,99.90
2018-07-15T00:07:45.764Z,99.90
2018-07-15T00:10:14.156Z,99.90
2018-07-15T00:12:42.576Z,99.90
2018-07-15T00:15:10.968Z,99.90
2018-07-15T00:17:39.416Z,99.90
2018-07-15T00:20:07.854Z,99.90
2018-07-15T00:22:36.297Z,99.90
2018-07-15T00:25:04.704Z,99.90
2018-07-15T00:27:33.077Z,99.90
2018-07-15T00:30:01.448Z,99.90
2018-07-15T00:32:29.993Z,99.90
2018-07-15T00:34:58.392Z,99.90
2018-07-15T00:37:26.792Z,99.90
2018-07-15T00:39:55.165Z,99.90
2018-07-15T00:42:23.572Z,99.90
2018-07-15T00:44:51.947Z,99.90
2018-07-15T00:47:20.520Z,99.90
2018-07-15T00:49:48.877Z,99.90
2018-07-15T00:52:17.281Z,99.90
2018-07-15T00:54:45.797Z,99.90
2018-07-15T00:57:14.237Z,99.90
2018-07-15T00:59:42.609Z,99.90
2018-07-15T01:02:11.026Z,99.90
2018-07-15T01:04:39.427Z,99.90
2018-07-15T01:07:07.936Z,99.90
2018-07-15T01:09:36.370Z,99.90
2018-07-15T01:12:04.776Z,99.90
2018-07-15T01:14:33.949Z,99.90
2018-07-15T01:17:02.343Z,99.90
2018-07-15T01:19:30.724Z,99.90
2018-07-15T01:21:59.121Z,99.90
2018-07-15T01:24:27.476Z,99.90
2018-07-15T01:26:55.866Z,99.90
2018-07-15T01:29:24.233Z,99.90
2018-07-15T01:31:52.755Z,99.90
2018-07-15T01:34:21.124Z,99.90
2018-07-15T01:36:49.500Z,99.90
2018-07-15T01:39:18.139Z,99.90
2018-07-15T01:41:46.530Z,99.90
2018-07-15T01:44:14.940Z,99.90
2018-07-15T01:46:43.429Z,99.90
2018-07-15T01:49:11.807Z,99.90
2018-07-15T01:51:40.167Z,99.90
2018-07-15T01:54:08.588Z,99.90
2018-07-15T01:56:36.997Z,99.90
2018-07-15T01:59:05.480Z,99.90
2018-07-15T02:04:01.948Z,99.90
2018-07-15T02:06:30.329Z,99.90
2018-07-15T02:08:58.716Z,99.90
2018-07-15T02:11:27.051Z,99.90
2018-07-15T02:13:55.422Z,99.90
2018-07-15T02:16:23.775Z,99.90
2018-07-15T02:18:52.190Z,99.90
2018-07-15T02:21:20.564Z,99.90
2018-07-15T02:23:48.952Z,99.90
2018-07-15T02:26:17.352Z,99.90
2018-07-15T02:28:45.799Z,99.90
2018-07-15T02:31:14.212Z,99.90
2018-07-15T02:33:42.616Z,99.90
2018-07-15T02:36:11.005Z,99.90
2018-07-15T02:38:39.404Z,99.90
2018-07-15T02:41:07.780Z,99.90
2018-07-15T02:43:36.185Z,99.90
2018-07-15T02:46:04.577Z,99.90
2018-07-15T02:48:32.948Z,99.90
2018-07-15T02:51:01.324Z,99.90
2018-07-15T02:53:29.717Z,99.90
2018-07-15T02:55:58.344Z,99.90
2018-07-15T02:58:26.713Z,99.90
2018-07-15T03:00:55.108Z,99.90
2018-07-15T03:03:23.496Z,99.90
2018-07-15T03:05:51.872Z,99.90
2018-07-15T03:08:20.255Z,99.90
2018-07-15T03:10:48.624Z,99.90
2018-07-15T03:13:17.317Z,99.90
2018-07-15T03:15:45.769Z,99.90
2018-07-15T03:18:14.197Z,99.90
2018-07-15T03:20:42.568Z,99.90
2018-07-15T03:23:11.000Z,99.90
2018-07-15T03:25:39.355Z,99.90
2018-07-15T03:28:07.815Z,99.90
2018-07-15T03:30:36.169Z,99.90
2018-07-15T03:33:04.552Z,99.90
2018-07-15T03:35:32.964Z,99.90
2018-07-15T03:38:01.348Z,99.90
2018-07-15T03:40:29.759Z,99.90
2018-07-15T03:42:58.133Z,99.90
2018-07-15T03:45:26.524Z,99.90
2018-07-15T03:47:54.997Z,99.90
2018-07-15T03:50:23.385Z,99.90
2018-07-15T03:52:51.904Z,99.90
2018-07-15T03:55:20.349Z,99.90
2018-07-15T03:57:48.747Z,99.90
2018-07-15T04:00:17.198Z,99.90
2018-07-15T04:02:45.727Z,99.90
2018-07-15T04:05:14.145Z,99.90
2018-07-15T04:07:42.495Z,99.90
2018-07-15T04:10:10.868Z,99.90
2018-07-15T04:12:39.371Z,99.90
2018-07-15T04:15:07.848Z,99.90
2018-07-15T04:17:36.216Z,99.90
2018-07-15T04:20:04.728Z,99.90
2018-07-15T04:22:33.140Z,99.90
2018-07-15T04:25:01.536Z,99.90
2018-07-15T04:27:29.910Z,99.90
2018-07-15T04:29:58.344Z,99.90
2018-07-15T04:32:26.722Z,99.90
2018-07-15T04:34:55.169Z,99.90
2018-07-15T04:37:23.564Z,99.90
2018-07-15T04:39:51.970Z,99.90
2018-07-15T04:42:20.393Z,99.90
2018-07-15T04:44:48.839Z,99.90
2018-07-15T04:47:17.248Z,99.90
2018-07-15T04:49:45.661Z,99.90
2018-07-15T04:52:14.083Z,99.90
2018-07-15T04:54:42.490Z,99.90
2018-07-15T04:57:10.842Z,99.90
2018-07-15T04:59:39.313Z,99.90
2018-07-15T05:02:07.814Z,99.90
2018-07-15T05:04:36.185Z,99.90
2018-07-15T05:07:04.609Z,99.90
2018-07-15T05:09:33.055Z,99.90
2018-07-15T05:12:01.464Z,99.90
2018-07-15T05:14:29.820Z,99.90
2018-07-15T05:16:58.182Z,99.90
2018-07-15T05:19:26.552Z,99.90
2018-07-15T05:21:54.908Z,99.90
2018-07-15T05:24:23.301Z,99.90
2018-07-15T05:29:20.050Z,99.90
2018-07-15T05:31:48.648Z,99.90
2018-07-15T05:34:17.089Z,99.90
2018-07-15T05:36:45.637Z,98.80
2018-07-15T05:39:14.029Z,97.20
2018-07-15T05:41:42.420Z,96.60
2018-07-15T05:44:10.845Z,94.00
2018-07-15T05:49:07.605Z,87.50
2018-07-15T05:51:36.028Z,87.30
2018-07-15T05:54:04.485Z,83.50
2018-07-15T05:56:32.875Z,82.70
2018-07-15T05:59:01.255Z,81.80
2018-07-15T06:01:29.681Z,81.60
2018-07-15T06:03:58.039Z,77.40
2018-07-15T06:06:26.453Z,74.60
2018-07-15T06:08:54.840Z,72.70
2018-07-15T06:11:23.401Z,75.60
2018-07-15T06:13:51.747Z,72.10
2018-07-15T06:16:20.132Z,72.30
2018-07-15T06:18:48.518Z,72.50
2018-07-15T06:21:16.933Z,68.50
2018-07-15T06:23:45.347Z,68.40
2018-07-15T06:26:13.907Z,63.20
2018-07-15T06:31:10.367Z,61.10
2018-07-15T06:33:38.796Z,59.90
2018-07-15T06:36:07.159Z,62.30
2018-07-15T06:38:35.512Z,60.30
2018-07-15T06:41:03.917Z,58.70
2018-07-15T06:43:32.307Z,59.30
2018-07-15T06:46:00.685Z,59.10
2018-07-15T06:48:29.040Z,60.30
2018-07-15T06:50:57.437Z,58.10
2018-07-15T06:53:25.832Z,58.20
2018-07-15T06:55:54.286Z,57.30
2018-07-15T06:58:22.735Z,57.20
2018-07-15T07:00:51.143Z,57.10
2018-07-15T07:03:19.483Z,56.20
2018-07-15T07:05:47.987Z,55.80
2018-07-15T07:08:16.365Z,55.60
2018-07-15T07:10:44.753Z,54.80
2018-07-15T07:13:13.108Z,54.60
2018-07-15T07:15:41.483Z,54.40
2018-07-15T07:18:09.828Z,55.40
2018-07-15T07:20:38.354Z,55.10
2018-07-15T07:23:06.934Z,51.70
2018-07-15T07:25:35.596Z,53.10
2018-07-15T07:28:03.940Z,51.20
2018-07-15T07:30:32.339Z,50.90
2018-07-15T07:33:00.782Z,50.60
2018-07-15T07:35:29.632Z,49.80
2018-07-15T07:37:57.933Z,50.80
2018-07-15T07:40:26.348Z,51.40
2018-07-15T07:42:54.742Z,50.40
2018-07-15T07:45:23.291Z,50.10
2018-07-15T07:47:51.661Z,50.80
2018-07-15T07:52:48.221Z,50.00
2018-07-15T07:55:16.674Z,50.40
2018-07-15T07:57:45.120Z,50.70
2018-07-15T08:00:13.543Z,50.70
2018-07-15T08:02:41.989Z,49.10
2018-07-15T08:05:10.349Z,49.90
2018-07-15T08:07:38.783Z,50.60
2018-07-15T08:10:07.130Z,50.20
2018-07-15T08:12:35.548Z,49.80
2018-07-15T08:15:04.134Z,49.90
2018-07-15T08:17:32.689Z,49.50
2018-07-15T08:20:01.103Z,48.70
2018-07-15T08:22:29.505Z,46.10
2018-07-15T08:24:58.129Z,46.10
2018-07-15T08:27:26.511Z,46.50
2018-07-15T08:30:06.312Z,45.80
2018-07-15T08:32:34.698Z,45.30
2018-07-15T08:35:03.129Z,45.40
2018-07-15T08:37:31.526Z,45.30
2018-07-15T08:39:59.921Z,44.10
2018-07-15T08:42:28.287Z,43.60
2018-07-15T08:44:56.643Z,42.90
2018-07-15T08:47:25.032Z,45.60
2018-07-15T08:49:53.401Z,47.20
2018-07-15T08:52:21.786Z,46.60
2018-07-15T08:54:50.227Z,46.10
2018-07-15T08:57:18.611Z,45.10
2018-07-15T08:59:47.299Z,43.40
2018-07-15T09:02:15.690Z,44.80
2018-07-15T09:04:44.056Z,44.10
2018-07-15T09:07:12.572Z,43.80
2018-07-15T09:09:40.993Z,42.90
2018-07-15T09:12:09.448Z,44.20
2018-07-15T09:14:38.101Z,42.20
2018-07-15T09:17:06.480Z,42.80
2018-07-15T09:19:34.963Z,40.60
2018-07-15T09:22:03.357Z,43.60
2018-07-15T09:24:32.432Z,41.80
2018-07-15T09:27:00.841Z,42.00
2018-07-15T09:29:29.238Z,43.30
2018-07-15T09:31:57.621Z,42.30
2018-07-15T09:34:26.093Z,42.10
2018-07-15T09:36:54.595Z,42.40
2018-07-15T09:39:23.037Z,41.30
2018-07-15T09:41:51.467Z,42.30
2018-07-15T09:44:19.869Z,42.70
2018-07-15T09:46:48.238Z,44.30
2018-07-15T09:49:16.673Z,45.30
2018-07-15T09:51:45.129Z,44.90
2018-07-15T09:54:13.532Z,45.10
2018-07-15T09:56:41.904Z,46.20
2018-07-15T09:59:10.267Z,47.50
2018-07-15T10:01:38.630Z,48.30
2018-07-15T10:04:07.059Z,49.50
2018-07-15T10:06:35.497Z,49.60
2018-07-15T10:09:04.942Z,49.60
2018-07-15T10:11:33.356Z,50.70
2018-07-15T10:14:01.729Z,50.60
2018-07-15T10:16:30.115Z,51.00
2018-07-15T10:18:58.552Z,51.60
2018-07-15T10:21:26.977Z,52.50
2018-07-15T10:23:55.343Z,53.70
2018-07-15T10:26:23.758Z,55.20
2018-07-15T10:28:52.183Z,54.40
2018-07-15T10:31:20.551Z,53.90
2018-07-15T10:33:48.945Z,54.90
2018-07-15T10:36:17.356Z,56.00
2018-07-15T10:38:45.773Z,56.90
2018-07-15T10:41:14.196Z,57.50
2018-07-15T10:43:42.608Z,57.50
2018-07-15T10:46:10.977Z,57.20
2018-07-15T10:48:39.393Z,57.80
2018-07-15T10:51:07.735Z,57.80
2018-07-15T10:53:36.164Z,58.60
2018-07-15T10:56:04.621Z,58.20
2018-07-15T10:58:33.004Z,59.20
2018-07-15T11:01:01.626Z,58.50
2018-07-15T11:03:30.388Z,59.50
2018-07-15T11:05:58.916Z,58.70
2018-07-15T11:08:27.376Z,59.30
2018-07-15T11:10:55.741Z,59.20
2018-07-15T11:13:24.162Z,59.70
2018-07-15T11:15:52.664Z,59.60
2018-07-15T11:18:21.158Z,60.00
2018-07-15T11:20:49.561Z,58.30
2018-07-15T11:23:18.090Z,58.00
2018-07-15T11:25:46.477Z,58.00
2018-07-15T11:28:14.957Z,57.90
2018-07-15T11:30:43.475Z,59.00
2018-07-15T11:33:11.856Z,58.90
2018-07-15T11:35:40.244Z,57.90
2018-07-15T11:38:08.750Z,59.00
2018-07-15T11:40:37.576Z,58.50
2018-07-15T11:43:05.936Z,58.60
2018-07-15T11:45:34.356Z,58.80
2018-07-15T11:48:02.809Z,58.20
2018-07-15T11:50:31.240Z,58.70
2018-07-15T11:53:06.390Z,58.30
2018-07-15T11:55:34.793Z,57.80
2018-07-15T12:00:31.390Z,57.20
2018-07-15T12:03:00.310Z,57.40
2018-07-15T12:05:28.764Z,58.60
2018-07-15T12:07:57.131Z,56.80
2018-07-15T12:10:25.572Z,57.00
2018-07-15T12:12:53.922Z,58.10
2018-07-15T12:15:22.294Z,58.80
2018-07-15T12:17:50.677Z,57.90
2018-07-15T12:20:19.074Z,57.00
2018-07-15T12:22:47.437Z,57.10
2018-07-15T12:25:15.825Z,57.20
2018-07-15T12:27:44.220Z,58.80
2018-07-15T12:30:12.684Z,58.50
2018-07-15T12:32:41.064Z,57.20
2018-07-15T12:35:09.443Z,56.40
2018-07-15T12:37:37.788Z,56.50
2018-07-15T12:40:06.344Z,56.40
2018-07-15T12:42:34.671Z,57.10
2018-07-15T12:45:03.048Z,57.20
2018-07-15T12:47:31.506Z,57.30
2018-07-15T12:49:59.952Z,57.70
2018-07-15T12:52:28.385Z,56.70
2018-07-15T12:54:56.852Z,56.60
2018-07-15T12:57:25.309Z,57.10
2018-07-15T12:59:53.672Z,56.30
2018-07-15T13:02:22.056Z,57.90
2018-07-15T13:04:50.445Z,57.00
2018-07-15T13:07:18.987Z,54.70
2018-07-15T13:09:47.483Z,56.50
2018-07-15T13:12:15.888Z,56.70
2018-07-15T13:14:44.359Z,56.80
2018-07-15T13:17:12.806Z,56.10
2018-07-15T13:19:41.228Z,55.00
2018-07-15T13:22:09.622Z,56.10
2018-07-15T13:24:38.189Z,56.00
2018-07-15T13:27:06.660Z,56.70
2018-07-15T13:29:35.102Z,55.70
2018-07-15T13:32:03.484Z,55.70
2018-07-15T13:34:31.872Z,56.30
2018-07-15T13:37:00.367Z,56.30
2018-07-15T13:39:28.863Z,56.20
2018-07-15T13:41:57.288Z,55.30
2018-07-15T13:44:25.728Z,56.00
2018-07-15T13:46:54.256Z,56.00
2018-07-15T13:49:22.677Z,55.80
2018-07-15T13:51:51.190Z,56.40
2018-07-15T13:54:19.822Z,56.40
2018-07-15T13:56:48.513Z,56.40
2018-07-15T13:59:16.976Z,56.10
2018-07-15T14:01:45.390Z,55.50
2018-07-15T14:04:13.974Z,55.50
2018-07-15T14:06:42.309Z,55.30
2018-07-15T14:09:10.779Z,55.00
2018-07-15T14:11:39.306Z,55.40
2018-07-15T14:14:07.700Z,54.20
2018-07-15T14:16:36.173Z,53.90
2018-07-15T14:19:04.774Z,54.50
2018-07-15T14:21:33.242Z,54.20
2018-07-15T14:24:01.565Z,54.30
2018-07-15T14:26:30.000Z,53.60
2018-07-15T14:28:58.450Z,54.10
2018-07-15T14:31:26.856Z,54.50
2018-07-15T14:36:23.381Z,54.10
2018-07-15T14:38:51.865Z,54.00
2018-07-15T14:41:20.426Z,54.90
2018-07-15T14:43:48.866Z,53.40
2018-07-15T14:46:17.344Z,53.10
2018-07-15T14:48:46.050Z,53.40
2018-07-15T14:51:14.536Z,52.80
2018-07-15T14:53:42.929Z,52.50
2018-07-15T14:56:11.676Z,52.80
2018-07-15T14:58:40.172Z,52.20
2018-07-15T15:01:08.634Z,53.30
2018-07-15T15:03:37.063Z,52.90
2018-07-15T15:06:05.606Z,53.50
2018-07-15T15:08:34.217Z,52.60
2018-07-15T15:11:02.701Z,52.80
2018-07-15T15:13:31.146Z,53.00
2018-07-15T15:15:59.590Z,52.80
2018-07-15T15:18:28.100Z,52.90
2018-07-15T15:20:56.492Z,53.00
2018-07-15T15:23:25.005Z,54.00
2018-07-15T15:25:53.471Z,53.70
2018-07-15T15:28:21.831Z,53.90
2018-07-15T15:30:50.217Z,53.70
2018-07-15T15:33:18.695Z,53.10
2018-07-15T15:35:47.176Z,53.50
2018-07-15T15:38:15.715Z,53.00
2018-07-15T15:40:44.164Z,52.30
2018-07-15T15:43:12.684Z,52.00
2018-07-15T15:45:42.438Z,52.40
2018-07-15T15:48:10.821Z,52.70
2018-07-15T15:50:39.229Z,52.80
2018-07-15T15:53:07.680Z,53.30
2018-07-15T15:55:36.141Z,53.60
2018-07-15T15:58:04.831Z,53.90
2018-07-15T16:00:33.364Z,54.80
2018-07-15T16:03:01.774Z,53.30
2018-07-15T16:05:30.160Z,52.90
2018-07-15T16:07:58.591Z,52.60
2018-07-15T16:10:27.020Z,52.50
2018-07-15T16:12:55.483Z,52.40
2018-07-15T16:15:23.971Z,52.60
2018-07-15T16:17:52.366Z,53.10
2018-07-15T16:20:20.810Z,53.70
2018-07-15T16:22:49.753Z,54.90
2018-07-15T16:25:19.076Z,54.80
2018-07-15T16:27:47.465Z,54.80
2018-07-15T16:30:15.945Z,55.00
2018-07-15T16:32:44.327Z,55.40
2018-07-15T16:35:12.703Z,54.70
2018-07-15T16:37:41.104Z,55.00
2018-07-15T16:40:09.540Z,55.10
2018-07-15T16:42:37.936Z,55.50
2018-07-15T16:45:07.368Z,55.00
2018-07-15T16:47:36.405Z,54.70
2018-07-15T16:50:04.820Z,54.70
2018-07-15T16:52:33.213Z,54.80
2018-07-15T16:55:01.652Z,54.60
2018-07-15T16:57:31.440Z,55.00
2018-07-15T16:59:59.809Z,55.00
2018-07-15T17:02:28.173Z,54.80
2018-07-15T17:04:56.569Z,54.80
2018-07-15T17:07:25.007Z,55.10
2018-07-15T17:09:53.368Z,54.80
2018-07-15T17:12:23.224Z,55.10
2018-07-15T17:14:51.609Z,54.90
2018-07-15T17:17:20.001Z,54.60
2018-07-15T17:19:48.429Z,55.00
2018-07-15T17:22:16.809Z,55.10
2018-07-15T17:24:45.447Z,54.90
2018-07-15T17:27:14.019Z,55.00
2018-07-15T17:29:42.653Z,54.90
2018-07-15T17:32:11.128Z,55.20
2018-07-15T17:34:39.762Z,55.00
2018-07-15T17:37:08.281Z,54.80
2018-07-15T17:39:36.717Z,54.70
2018-07-15T17:42:05.161Z,55.00
2018-07-15T17:44:33.668Z,55.30
2018-07-15T17:47:02.094Z,55.30
2018-07-15T17:49:30.476Z,55.40
2018-07-15T17:51:58.894Z,55.70
2018-07-15T17:54:27.433Z,55.70
2018-07-15T17:56:55.837Z,55.60
2018-07-15T17:59:24.284Z,55.30
2018-07-15T18:01:52.760Z,54.70
2018-07-15T18:04:21.420Z,54.80
2018-07-15T18:06:49.904Z,55.20
2018-07-15T18:09:18.341Z,55.40
2018-07-15T18:11:46.717Z,55.70
2018-07-15T18:14:15.274Z,55.90
2018-07-15T18:16:43.840Z,55.80
2018-07-15T18:19:12.601Z,56.70
2018-07-15T18:21:41.037Z,56.60
2018-07-15T18:24:09.597Z,55.90
2018-07-15T18:26:38.009Z,56.10
2018-07-15T18:29:06.439Z,55.80
2018-07-15T18:31:34.824Z,56.20
2018-07-15T18:34:03.243Z,56.70
2018-07-15T18:36:31.813Z,56.60
2018-07-15T18:39:00.339Z,56.90
2018-07-15T18:41:28.864Z,56.70
2018-07-15T18:43:57.256Z,57.10
2018-07-15T18:46:25.648Z,57.10
2018-07-15T18:48:54.153Z,57.50
2018-07-15T18:51:22.733Z,58.00
2018-07-15T18:53:51.139Z,57.80
2018-07-15T18:56:19.587Z,58.00
2018-07-15T18:58:48.093Z,57.70
2018-07-15T19:01:16.480Z,57.70
2018-07-15T19:03:45.065Z,58.20
2018-07-15T19:06:13.425Z,58.00
2018-07-15T19:08:41.857Z,58.30
2018-07-15T19:11:10.429Z,58.50
2018-07-15T19:13:38.839Z,58.50
2018-07-15T19:16:07.337Z,58.80
2018-07-15T19:18:35.822Z,58.90
2018-07-15T19:21:04.366Z,59.40
2018-07-15T19:23:33.015Z,59.50
2018-07-15T19:26:01.388Z,59.40
2018-07-15T19:28:29.783Z,59.90
2018-07-15T19:30:58.182Z,60.60
2018-07-15T19:33:26.594Z,60.30
2018-07-15T19:35:55.026Z,60.60
2018-07-15T19:38:23.397Z,60.90
2018-07-15T19:43:19.849Z,61.50
2018-07-15T19:45:48.208Z,61.90
2018-07-15T19:48:16.557Z,62.00
2018-07-15T19:50:44.917Z,62.30
2018-07-15T19:53:13.304Z,63.30
2018-07-15T19:55:41.720Z,62.20
2018-07-15T19:58:10.122Z,62.40
2018-07-15T20:03:06.632Z,62.60
2018-07-15T20:05:35.037Z,63.30
2018-07-15T20:08:03.404Z,63.90
2018-07-15T20:10:31.793Z,64.60
2018-07-15T20:13:00.200Z,63.70
2018-07-15T20:15:28.545Z,63.30
2018-07-15T20:17:57.311Z,63.50
2018-07-15T20:20:25.678Z,63.60
2018-07-15T20:22:54.049Z,64.00
2018-07-15T20:25:22.455Z,64.40
2018-07-15T20:27:50.857Z,64.80
2018-07-15T20:30:19.221Z,64.40
2018-07-15T20:32:47.569Z,64.60
2018-07-15T20:35:15.967Z,64.90
2018-07-15T20:37:44.357Z,65.50
2018-07-15T20:40:12.749Z,66.00
2018-07-15T20:42:41.120Z,66.50
2018-07-15T20:45:09.588Z,65.90
2018-07-15T20:47:37.961Z,66.60
2018-07-15T20:50:06.332Z,67.30
2018-07-15T20:52:34.720Z,67.40
2018-07-15T20:55:04.018Z,67.60
2018-07-15T20:57:32.364Z,67.40
2018-07-15T21:00:02.268Z,68.40
2018-07-15T21:02:30.678Z,68.40
2018-07-15T21:04:59.012Z,69.20
2018-07-15T21:07:29.533Z,69.70
2018-07-15T21:09:57.916Z,69.50
2018-07-15T21:12:26.268Z,70.60
2018-07-15T21:14:55.075Z,70.40
2018-07-15T21:17:23.518Z,71.00
2018-07-15T21:19:51.884Z,71.00
2018-07-15T21:22:20.265Z,71.80
2018-07-15T21:24:48.725Z,72.40
2018-07-15T21:27:17.158Z,74.80
2018-07-15T21:29:45.605Z,73.10
2018-07-15T21:32:14.075Z,74.10
2018-07-15T21:34:42.423Z,72.70
2018-07-15T21:37:10.829Z,73.40
2018-07-15T21:39:39.237Z,73.70
2018-07-15T21:42:07.639Z,73.60
2018-07-15T21:44:36.025Z,73.20
2018-07-15T21:47:04.466Z,73.80
2018-07-15T21:49:33.693Z,73.70
2018-07-15T21:52:02.197Z,73.50
2018-07-15T21:54:30.749Z,74.30
2018-07-15T21:56:59.222Z,75.70
2018-07-15T21:59:27.640Z,75.40
2018-07-15T22:01:56.012Z,75.00
2018-07-15T22:04:24.488Z,74.90
2018-07-15T22:07:04.082Z,75.10
2018-07-15T22:09:54.268Z,76.20
2018-07-15T22:12:22.772Z,77.20
2018-07-15T22:14:51.143Z,77.30
2018-07-15T22:17:19.670Z,77.30
2018-07-15T22:19:48.038Z,76.50
2018-07-15T22:22:16.867Z,78.90
2018-07-15T22:24:45.266Z,78.00
2018-07-15T22:27:13.696Z,78.30
2018-07-15T22:29:42.053Z,78.60
2018-07-15T22:32:10.817Z,78.30
2018-07-15T22:34:39.165Z,79.30
2018-07-15T22:37:07.676Z,80.00
2018-07-15T22:39:36.033Z,80.00
2018-07-15T22:42:06.126Z,81.20
2018-07-15T22:44:34.579Z,82.30
2018-07-15T22:47:02.996Z,82.30
2018-07-15T22:49:31.399Z,83.40
2018-07-15T22:51:59.788Z,84.00
2018-07-15T22:54:28.164Z,84.30
2018-07-15T22:56:56.569Z,84.40
2018-07-15T22:59:24.913Z,85.30
2018-07-15T23:01:53.324Z,85.40
2018-07-15T23:04:33.597Z,85.50
2018-07-15T23:07:02.204Z,86.40
2018-07-15T23:09:30.595Z,86.30
2018-07-15T23:11:58.947Z,86.80
2018-07-15T23:14:27.329Z,87.40
2018-07-15T23:16:55.693Z,87.30
2018-07-15T23:19:24.049Z,88.10
2018-07-15T23:21:52.437Z,90.10
2018-07-15T23:24:20.799Z,89.80
2018-07-15T23:26:49.178Z,90.10
2018-07-15T23:29:17.608Z,90.70
2018-07-15T23:31:45.991Z,90.90
2018-07-15T23:34:14.401Z,91.10
2018-07-15T23:36:43.247Z,91.50
2018-07-15T23:39:11.729Z,91.50
2018-07-15T23:41:40.171Z,91.30
2018-07-15T23:44:08.638Z,91.70
2018-07-15T23:46:37.021Z,92.40
2018-07-15T23:49:05.405Z,92.10
2018-07-15T23:51:34.721Z,92.30
2018-07-15T23:54:03.106Z,92.30
2018-07-15T23:56:31.520Z,92.20
2018-07-15T23:58:59.897Z,92.60
